sensor_id;sensor_type;location;lat;lon;timestamp;P1;durP1;ratioP1;P2;durP2;ratioP2
25639;SDS011;13497;48.322;16.204;2022-07-29T00:01:48;1.05;;;0.93;;
25639;SDS011;13497;48.322;16.204;2022-07-29T00:04:14;1.67;;;1.30;;
25639;SDS011;13497;48.322;16.204;2022-07-29T00:06:40;2.00;;;1.10;;
25639;SDS011;13497;48.322;16.204;2022-07-29T00:09:06;1.20;;;1.10;;
25639;SDS011;13497;48.322;16.204;2022-07-29T00:11:32;1.10;;;1.00;;
25639;SDS011;13497;48.322;16.204;2022-07-29T00:13:57;1.80;;;1.27;;
25639;SDS011;13497;48.322;16.204;2022-07-29T00:16:23;1.45;;;1.20;;
25639;SDS011;13497;48.322;16.204;2022-07-29T00:18:49;1.40;;;1.30;;
25639;SDS011;13497;48.322;16.204;2022-07-29T00:21:15;1.33;;;1.23;;
25639;SDS011;13497;48.322;16.204;2022-07-29T00:23:40;1.10;;;1.00;;
25639;SDS011;13497;48.322;16.204;2022-07-29T00:26:06;2.58;;;1.40;;
25639;SDS011;13497;48.322;16.204;2022-07-29T00:28:32;1.42;;;1.20;;
25639;SDS011;13497;48.322;16.204;2022-07-29T00:30:58;1.20;;;1.10;;
25639;SDS011;13497;48.322;16.204;2022-07-29T00:33:23;1.75;;;1.25;;
25639;SDS011;13497;48.322;16.204;2022-07-29T00:35:49;1.35;;;1.20;;
25639;SDS011;13497;48.322;16.204;2022-07-29T00:38:16;1.20;;;1.10;;
25639;SDS011;13497;48.322;16.204;2022-07-29T00:40:44;1.13;;;0.90;;
25639;SDS011;13497;48.322;16.204;2022-07-29T00:43:11;2.47;;;1.38;;
25639;SDS011;13497;48.322;16.204;2022-07-29T00:45:39;2.10;;;1.10;;
25639;SDS011;13497;48.322;16.204;2022-07-29T00:50:31;1.27;;;1.02;;
25639;SDS011;13497;48.322;16.204;2022-07-29T00:52:57;1.63;;;0.90;;
25639;SDS011;13497;48.322;16.204;2022-07-29T00:55:23;1.15;;;0.98;;
25639;SDS011;13497;48.322;16.204;2022-07-29T00:57:49;1.55;;;1.25;;
25639;SDS011;13497;48.322;16.204;2022-07-29T01:00:17;1.45;;;1.20;;
25639;SDS011;13497;48.322;16.204;2022-07-29T01:02:45;1.75;;;1.50;;
25639;SDS011;13497;48.322;16.204;2022-07-29T01:05:13;1.35;;;1.00;;
25639;SDS011;13497;48.322;16.204;2022-07-29T01:07:40;1.17;;;1.00;;
25639;SDS011;13497;48.322;16.204;2022-07-29T01:10:07;1.88;;;1.10;;
25639;SDS011;13497;48.322;16.204;2022-07-29T01:12:34;1.52;;;1.10;;
25639;SDS011;13497;48.322;16.204;2022-07-29T01:15:02;2.40;;;1.60;;
25639;SDS011;13497;48.322;16.204;2022-07-29T01:17:32;2.28;;;1.58;;
25639;SDS011;13497;48.322;16.204;2022-07-29T01:20:21;1.40;;;1.15;;
25639;SDS011;13497;48.322;16.204;2022-07-29T01:31:26;1.63;;;1.27;;
25639;SDS011;13497;48.322;16.204;2022-07-29T01:34:01;1.08;;;0.98;;
25639;SDS011;13497;48.322;16.204;2022-07-29T01:39:38;4.70;;;1.30;;
25639;SDS011;13497;48.322;16.204;2022-07-29T01:44:48;1.50;;;1.23;;
25639;SDS011;13497;48.322;16.204;2022-07-29T01:47:23;2.25;;;1.58;;
25639;SDS011;13497;48.322;16.204;2022-07-29T01:49:54;2.90;;;1.50;;
25639;SDS011;13497;48.322;16.204;2022-07-29T01:52:25;1.98;;;1.38;;
25639;SDS011;13497;48.322;16.204;2022-07-29T01:54:57;1.23;;;1.13;;
25639;SDS011;13497;48.322;16.204;2022-07-29T01:57:28;1.60;;;1.33;;
25639;SDS011;13497;48.322;16.204;2022-07-29T01:59:57;1.55;;;1.20;;
25639;SDS011;13497;48.322;16.204;2022-07-29T02:02:25;1.48;;;1.38;;
25639;SDS011;13497;48.322;16.204;2022-07-29T02:04:52;1.90;;;1.42;;
25639;SDS011;13497;48.322;16.204;2022-07-29T02:07:20;2.13;;;1.40;;
25639;SDS011;13497;48.322;16.204;2022-07-29T02:09:49;1.63;;;1.30;;
25639;SDS011;13497;48.322;16.204;2022-07-29T02:12:16;1.55;;;1.45;;
25639;SDS011;13497;48.322;16.204;2022-07-29T02:14:50;1.95;;;1.50;;
25639;SDS011;13497;48.322;16.204;2022-07-29T02:17:21;1.42;;;1.33;;
25639;SDS011;13497;48.322;16.204;2022-07-29T02:19:49;2.75;;;1.25;;
25639;SDS011;13497;48.322;16.204;2022-07-29T02:22:17;1.13;;;1.02;;
25639;SDS011;13497;48.322;16.204;2022-07-29T02:24:44;3.17;;;1.38;;
25639;SDS011;13497;48.322;16.204;2022-07-29T02:27:12;2.17;;;1.48;;
25639;SDS011;13497;48.322;16.204;2022-07-29T02:29:39;1.35;;;1.25;;
25639;SDS011;13497;48.322;16.204;2022-07-29T02:32:05;1.85;;;1.17;;
25639;SDS011;13497;48.322;16.204;2022-07-29T02:34:33;2.08;;;1.50;;
25639;SDS011;13497;48.322;16.204;2022-07-29T02:37:02;1.55;;;1.30;;
25639;SDS011;13497;48.322;16.204;2022-07-29T02:39:29;1.40;;;1.15;;
25639;SDS011;13497;48.322;16.204;2022-07-29T02:42:01;1.80;;;1.58;;
25639;SDS011;13497;48.322;16.204;2022-07-29T02:44:30;1.50;;;1.17;;
25639;SDS011;13497;48.322;16.204;2022-07-29T02:49:40;3.25;;;1.23;;
25639;SDS011;13497;48.322;16.204;2022-07-29T02:52:18;1.60;;;1.33;;
25639;SDS011;13497;48.322;16.204;2022-07-29T02:55:14;1.63;;;1.50;;
25639;SDS011;13497;48.322;16.204;2022-07-29T02:58:02;2.35;;;1.55;;
25639;SDS011;13497;48.322;16.204;2022-07-29T03:00:34;1.63;;;1.25;;
25639;SDS011;13497;48.322;16.204;2022-07-29T03:03:03;1.77;;;1.60;;
25639;SDS011;13497;48.322;16.204;2022-07-29T03:05:32;2.03;;;1.58;;
25639;SDS011;13497;48.322;16.204;2022-07-29T03:08:00;1.65;;;1.35;;
25639;SDS011;13497;48.322;16.204;2022-07-29T03:10:28;3.60;;;1.17;;
25639;SDS011;13497;48.322;16.204;2022-07-29T03:12:55;1.48;;;1.38;;
25639;SDS011;13497;48.322;16.204;2022-07-29T03:15:22;1.92;;;1.50;;
25639;SDS011;13497;48.322;16.204;2022-07-29T03:17:49;1.17;;;1.05;;
25639;SDS011;13497;48.322;16.204;2022-07-29T03:20:15;1.50;;;1.40;;
25639;SDS011;13497;48.322;16.204;2022-07-29T03:22:43;1.77;;;1.48;;
25639;SDS011;13497;48.322;16.204;2022-07-29T03:25:12;1.30;;;1.20;;
25639;SDS011;13497;48.322;16.204;2022-07-29T03:27:39;3.15;;;1.73;;
25639;SDS011;13497;48.322;16.204;2022-07-29T03:30:06;1.52;;;1.08;;
25639;SDS011;13497;48.322;16.204;2022-07-29T03:34:58;1.17;;;1.08;;
25639;SDS011;13497;48.322;16.204;2022-07-29T03:37:24;2.60;;;1.77;;
25639;SDS011;13497;48.322;16.204;2022-07-29T03:39:49;1.77;;;1.30;;
25639;SDS011;13497;48.322;16.204;2022-07-29T03:42:17;1.67;;;1.52;;
25639;SDS011;13497;48.322;16.204;2022-07-29T03:44:46;2.60;;;1.40;;
25639;SDS011;13497;48.322;16.204;2022-07-29T03:47:14;2.22;;;1.35;;
25639;SDS011;13497;48.322;16.204;2022-07-29T03:49:40;2.42;;;1.25;;
25639;SDS011;13497;48.322;16.204;2022-07-29T03:52:09;2.00;;;1.50;;
25639;SDS011;13497;48.322;16.204;2022-07-29T03:54:35;2.55;;;1.50;;
25639;SDS011;13497;48.322;16.204;2022-07-29T03:57:01;2.45;;;1.52;;
25639;SDS011;13497;48.322;16.204;2022-07-29T03:59:28;1.67;;;1.52;;
25639;SDS011;13497;48.322;16.204;2022-07-29T04:01:57;2.25;;;1.80;;
25639;SDS011;13497;48.322;16.204;2022-07-29T04:04:24;2.05;;;1.50;;
25639;SDS011;13497;48.322;16.204;2022-07-29T04:06:50;1.85;;;1.27;;
25639;SDS011;13497;48.322;16.204;2022-07-29T04:09:16;2.03;;;1.80;;
25639;SDS011;13497;48.322;16.204;2022-07-29T04:11:42;1.50;;;1.20;;
25639;SDS011;13497;48.322;16.204;2022-07-29T04:14:07;2.22;;;1.65;;
25639;SDS011;13497;48.322;16.204;2022-07-29T04:16:33;2.10;;;1.60;;
25639;SDS011;13497;48.322;16.204;2022-07-29T04:18:59;2.17;;;1.50;;
25639;SDS011;13497;48.322;16.204;2022-07-29T04:21:24;1.53;;;1.43;;
25639;SDS011;13497;48.322;16.204;2022-07-29T04:23:50;5.18;;;1.50;;
25639;SDS011;13497;48.322;16.204;2022-07-29T04:26:16;1.50;;;1.40;;
25639;SDS011;13497;48.322;16.204;2022-07-29T04:28:43;2.85;;;1.70;;
25639;SDS011;13497;48.322;16.204;2022-07-29T04:31:09;3.90;;;1.77;;
25639;SDS011;13497;48.322;16.204;2022-07-29T04:33:36;2.13;;;1.88;;
25639;SDS011;13497;48.322;16.204;2022-07-29T04:36:02;1.38;;;1.27;;
25639;SDS011;13497;48.322;16.204;2022-07-29T04:38:28;1.65;;;1.50;;
25639;SDS011;13497;48.322;16.204;2022-07-29T04:40:53;2.67;;;1.50;;
25639;SDS011;13497;48.322;16.204;2022-07-29T04:43:19;1.23;;;1.13;;
25639;SDS011;13497;48.322;16.204;2022-07-29T04:45:45;2.78;;;1.65;;
25639;SDS011;13497;48.322;16.204;2022-07-29T04:48:11;2.22;;;1.38;;
25639;SDS011;13497;48.322;16.204;2022-07-29T04:50:40;1.73;;;1.50;;
25639;SDS011;13497;48.322;16.204;2022-07-29T04:53:06;2.22;;;1.35;;
25639;SDS011;13497;48.322;16.204;2022-07-29T04:55:32;1.85;;;1.52;;
25639;SDS011;13497;48.322;16.204;2022-07-29T04:57:58;1.52;;;1.42;;
25639;SDS011;13497;48.322;16.204;2022-07-29T05:00:24;1.67;;;1.58;;
25639;SDS011;13497;48.322;16.204;2022-07-29T05:02:49;1.30;;;1.15;;
25639;SDS011;13497;48.322;16.204;2022-07-29T05:05:15;4.68;;;2.03;;
25639;SDS011;13497;48.322;16.204;2022-07-29T05:07:41;3.05;;;1.80;;
25639;SDS011;13497;48.322;16.204;2022-07-29T05:10:07;2.17;;;1.50;;
25639;SDS011;13497;48.322;16.204;2022-07-29T05:12:33;1.67;;;1.58;;
25639;SDS011;13497;48.322;16.204;2022-07-29T05:14:58;3.60;;;1.42;;
25639;SDS011;13497;48.322;16.204;2022-07-29T05:17:24;1.42;;;1.33;;
25639;SDS011;13497;48.322;16.204;2022-07-29T05:19:50;1.83;;;1.55;;
25639;SDS011;13497;48.322;16.204;2022-07-29T05:22:17;1.80;;;1.40;;
25639;SDS011;13497;48.322;16.204;2022-07-29T05:24:43;1.50;;;1.40;;
25639;SDS011;13497;48.322;16.204;2022-07-29T05:27:09;1.45;;;1.20;;
25639;SDS011;13497;48.322;16.204;2022-07-29T05:29:35;2.03;;;1.77;;
25639;SDS011;13497;48.322;16.204;2022-07-29T05:32:01;3.90;;;1.48;;
25639;SDS011;13497;48.322;16.204;2022-07-29T05:36:53;1.40;;;1.30;;
25639;SDS011;13497;48.322;16.204;2022-07-29T05:39:18;1.60;;;1.50;;
25639;SDS011;13497;48.322;16.204;2022-07-29T05:41:44;1.85;;;1.65;;
25639;SDS011;13497;48.322;16.204;2022-07-29T05:46:36;3.08;;;1.63;;
25639;SDS011;13497;48.322;16.204;2022-07-29T05:51:27;1.35;;;1.25;;
25639;SDS011;13497;48.322;16.204;2022-07-29T05:56:19;1.38;;;1.27;;
25639;SDS011;13497;48.322;16.204;2022-07-29T06:01:10;1.92;;;1.40;;
25639;SDS011;13497;48.322;16.204;2022-07-29T06:03:35;2.05;;;1.38;;
25639;SDS011;13497;48.322;16.204;2022-07-29T06:06:03;2.08;;;1.48;;
25639;SDS011;13497;48.322;16.204;2022-07-29T06:08:29;1.52;;;1.40;;
25639;SDS011;13497;48.322;16.204;2022-07-29T06:13:20;3.65;;;1.10;;
25639;SDS011;13497;48.322;16.204;2022-07-29T06:18:12;2.72;;;1.67;;
25639;SDS011;13497;48.322;16.204;2022-07-29T06:20:38;1.77;;;1.38;;
25639;SDS011;13497;48.322;16.204;2022-07-29T06:23:04;2.72;;;1.67;;
25639;SDS011;13497;48.322;16.204;2022-07-29T06:25:29;2.35;;;1.58;;
25639;SDS011;13497;48.322;16.204;2022-07-29T06:27:55;1.45;;;1.35;;
25639;SDS011;13497;48.322;16.204;2022-07-29T06:32:47;2.00;;;1.42;;
25639;SDS011;13497;48.322;16.204;2022-07-29T06:35:13;2.38;;;1.70;;
25639;SDS011;13497;48.322;16.204;2022-07-29T06:37:38;1.63;;;1.52;;
25639;SDS011;13497;48.322;16.204;2022-07-29T06:40:04;2.75;;;1.90;;
25639;SDS011;13497;48.322;16.204;2022-07-29T06:42:49;1.63;;;1.45;;
25639;SDS011;13497;48.322;16.204;2022-07-29T06:45:14;1.70;;;1.42;;
25639;SDS011;13497;48.322;16.204;2022-07-29T06:47:41;1.67;;;1.58;;
25639;SDS011;13497;48.322;16.204;2022-07-29T06:50:07;2.13;;;1.50;;
25639;SDS011;13497;48.322;16.204;2022-07-29T06:52:36;1.50;;;1.40;;
25639;SDS011;13497;48.322;16.204;2022-07-29T06:55:02;1.38;;;1.27;;
25639;SDS011;13497;48.322;16.204;2022-07-29T06:57:28;2.25;;;1.65;;
25639;SDS011;13497;48.322;16.204;2022-07-29T06:59:55;2.67;;;1.50;;
25639;SDS011;13497;48.322;16.204;2022-07-29T07:02:22;3.80;;;2.70;;
25639;SDS011;13497;48.322;16.204;2022-07-29T07:04:48;3.90;;;1.48;;
25639;SDS011;13497;48.322;16.204;2022-07-29T07:07:13;2.65;;;1.63;;
25639;SDS011;13497;48.322;16.204;2022-07-29T07:09:39;1.70;;;1.60;;
25639;SDS011;13497;48.322;16.204;2022-07-29T07:12:05;1.80;;;1.50;;
25639;SDS011;13497;48.322;16.204;2022-07-29T07:16:56;3.50;;;2.10;;
25639;SDS011;13497;48.322;16.204;2022-07-29T07:19:22;1.75;;;1.58;;
25639;SDS011;13497;48.322;16.204;2022-07-29T07:21:48;2.05;;;1.52;;
25639;SDS011;13497;48.322;16.204;2022-07-29T07:24:14;2.00;;;1.65;;
25639;SDS011;13497;48.322;16.204;2022-07-29T07:26:39;1.90;;;1.80;;
25639;SDS011;13497;48.322;16.204;2022-07-29T07:29:05;1.75;;;1.38;;
25639;SDS011;13497;48.322;16.204;2022-07-29T07:31:31;2.42;;;1.77;;
25639;SDS011;13497;48.322;16.204;2022-07-29T07:33:57;2.60;;;1.73;;
25639;SDS011;13497;48.322;16.204;2022-07-29T07:36:23;3.15;;;1.50;;
25639;SDS011;13497;48.322;16.204;2022-07-29T07:38:49;1.88;;;1.48;;
25639;SDS011;13497;48.322;16.204;2022-07-29T07:41:15;1.67;;;1.52;;
25639;SDS011;13497;48.322;16.204;2022-07-29T07:43:40;1.85;;;1.70;;
25639;SDS011;13497;48.322;16.204;2022-07-29T07:46:06;1.50;;;1.40;;
25639;SDS011;13497;48.322;16.204;2022-07-29T07:48:31;1.90;;;1.55;;
25639;SDS011;13497;48.322;16.204;2022-07-29T07:50:59;1.85;;;1.50;;
25639;SDS011;13497;48.322;16.204;2022-07-29T07:53:25;2.30;;;1.40;;
25639;SDS011;13497;48.322;16.204;2022-07-29T07:55:51;4.22;;;2.42;;
25639;SDS011;13497;48.322;16.204;2022-07-29T07:58:17;1.77;;;1.60;;
25639;SDS011;13497;48.322;16.204;2022-07-29T08:00:42;1.70;;;1.50;;
25639;SDS011;13497;48.322;16.204;2022-07-29T08:03:08;2.55;;;1.70;;
25639;SDS011;13497;48.322;16.204;2022-07-29T08:05:37;3.13;;;1.60;;
25639;SDS011;13497;48.322;16.204;2022-07-29T08:08:03;2.78;;;1.58;;
25639;SDS011;13497;48.322;16.204;2022-07-29T08:10:29;2.92;;;1.95;;
25639;SDS011;13497;48.322;16.204;2022-07-29T08:13:13;1.65;;;1.52;;
25639;SDS011;13497;48.322;16.204;2022-07-29T08:15:39;1.70;;;1.60;;
25639;SDS011;13497;48.322;16.204;2022-07-29T08:18:09;1.50;;;1.40;;
25639;SDS011;13497;48.322;16.204;2022-07-29T08:20:36;2.97;;;1.85;;
25639;SDS011;13497;48.322;16.204;2022-07-29T08:23:04;2.33;;;1.45;;
25639;SDS011;13497;48.322;16.204;2022-07-29T08:25:32;2.20;;;1.65;;
25639;SDS011;13497;48.322;16.204;2022-07-29T08:27:58;1.60;;;1.38;;
25639;SDS011;13497;48.322;16.204;2022-07-29T08:30:24;1.35;;;1.25;;
25639;SDS011;13497;48.322;16.204;2022-07-29T08:32:50;1.80;;;1.70;;
25639;SDS011;13497;48.322;16.204;2022-07-29T08:35:18;2.15;;;1.77;;
25639;SDS011;13497;48.322;16.204;2022-07-29T08:37:44;2.78;;;1.85;;
25639;SDS011;13497;48.322;16.204;2022-07-29T08:40:10;3.10;;;2.00;;
25639;SDS011;13497;48.322;16.204;2022-07-29T08:42:36;5.95;;;2.10;;
25639;SDS011;13497;48.322;16.204;2022-07-29T08:45:02;1.92;;;1.80;;
25639;SDS011;13497;48.322;16.204;2022-07-29T08:47:29;2.10;;;1.77;;
25639;SDS011;13497;48.322;16.204;2022-07-29T08:49:55;1.60;;;1.50;;
25639;SDS011;13497;48.322;16.204;2022-07-29T08:52:21;2.28;;;1.80;;
25639;SDS011;13497;48.322;16.204;2022-07-29T08:54:49;2.97;;;1.67;;
25639;SDS011;13497;48.322;16.204;2022-07-29T08:57:15;2.75;;;1.92;;
25639;SDS011;13497;48.322;16.204;2022-07-29T09:02:12;1.65;;;1.55;;
25639;SDS011;13497;48.322;16.204;2022-07-29T09:04:44;3.65;;;1.90;;
25639;SDS011;13497;48.322;16.204;2022-07-29T09:07:10;1.70;;;1.60;;
25639;SDS011;13497;48.322;16.204;2022-07-29T09:09:41;4.55;;;1.73;;
25639;SDS011;13497;48.322;16.204;2022-07-29T09:12:08;1.77;;;1.50;;
25639;SDS011;13497;48.322;16.204;2022-07-29T09:14:36;5.45;;;1.85;;
25639;SDS011;13497;48.322;16.204;2022-07-29T09:17:02;1.25;;;1.15;;
25639;SDS011;13497;48.322;16.204;2022-07-29T09:19:32;2.00;;;1.48;;
25639;SDS011;13497;48.322;16.204;2022-07-29T09:22:00;1.40;;;1.25;;
25639;SDS011;13497;48.322;16.204;2022-07-29T09:27:00;2.95;;;1.80;;
25639;SDS011;13497;48.322;16.204;2022-07-29T09:29:26;1.98;;;1.63;;
25639;SDS011;13497;48.322;16.204;2022-07-29T09:31:53;2.22;;;1.70;;
25639;SDS011;13497;48.322;16.204;2022-07-29T09:34:23;2.22;;;1.67;;
25639;SDS011;13497;48.322;16.204;2022-07-29T09:36:54;2.55;;;1.60;;
25639;SDS011;13497;48.322;16.204;2022-07-29T09:39:27;2.75;;;1.75;;
25639;SDS011;13497;48.322;16.204;2022-07-29T09:41:55;1.60;;;1.40;;
25639;SDS011;13497;48.322;16.204;2022-07-29T09:44:22;2.55;;;1.90;;
25639;SDS011;13497;48.322;16.204;2022-07-29T09:46:53;1.60;;;1.50;;
25639;SDS011;13497;48.322;16.204;2022-07-29T09:49:18;2.20;;;1.55;;
25639;SDS011;13497;48.322;16.204;2022-07-29T09:51:44;1.73;;;1.63;;
25639;SDS011;13497;48.322;16.204;2022-07-29T09:54:23;2.28;;;1.50;;
25639;SDS011;13497;48.322;16.204;2022-07-29T09:56:50;1.83;;;1.73;;
25639;SDS011;13497;48.322;16.204;2022-07-29T09:59:16;1.95;;;1.70;;
25639;SDS011;13497;48.322;16.204;2022-07-29T10:01:42;1.85;;;1.65;;
25639;SDS011;13497;48.322;16.204;2022-07-29T10:04:08;1.88;;;1.40;;
25639;SDS011;13497;48.322;16.204;2022-07-29T10:06:34;1.73;;;1.63;;
25639;SDS011;13497;48.322;16.204;2022-07-29T10:09:09;2.45;;;1.52;;
25639;SDS011;13497;48.322;16.204;2022-07-29T10:11:36;1.55;;;1.45;;
25639;SDS011;13497;48.322;16.204;2022-07-29T10:14:02;2.40;;;1.60;;
25639;SDS011;13497;48.322;16.204;2022-07-29T10:16:30;2.15;;;1.95;;
25639;SDS011;13497;48.322;16.204;2022-07-29T10:18:59;2.03;;;1.85;;
25639;SDS011;13497;48.322;16.204;2022-07-29T10:21:26;2.85;;;1.60;;
25639;SDS011;13497;48.322;16.204;2022-07-29T10:23:52;3.60;;;2.00;;
25639;SDS011;13497;48.322;16.204;2022-07-29T10:26:19;1.77;;;1.48;;
25639;SDS011;13497;48.322;16.204;2022-07-29T10:28:45;1.92;;;1.55;;
25639;SDS011;13497;48.322;16.204;2022-07-29T10:31:14;2.55;;;1.85;;
25639;SDS011;13497;48.322;16.204;2022-07-29T10:34:02;2.03;;;1.77;;
25639;SDS011;13497;48.322;16.204;2022-07-29T10:36:45;2.60;;;1.90;;
25639;SDS011;13497;48.322;16.204;2022-07-29T10:39:27;2.58;;;1.92;;
25639;SDS011;13497;48.322;16.204;2022-07-29T10:42:17;2.58;;;1.85;;
25639;SDS011;13497;48.322;16.204;2022-07-29T10:44:43;2.63;;;2.00;;
25639;SDS011;13497;48.322;16.204;2022-07-29T10:47:23;2.15;;;1.90;;
25639;SDS011;13497;48.322;16.204;2022-07-29T10:49:59;2.28;;;1.80;;
25639;SDS011;13497;48.322;16.204;2022-07-29T10:53:12;1.88;;;1.73;;
25639;SDS011;13497;48.322;16.204;2022-07-29T10:55:30;2.85;;;1.73;;
25639;SDS011;13497;48.322;16.204;2022-07-29T11:00:43;2.17;;;1.33;;
25639;SDS011;13497;48.322;16.204;2022-07-29T11:06:13;1.38;;;1.27;;
25639;SDS011;13497;48.322;16.204;2022-07-29T11:08:39;1.40;;;1.15;;
25639;SDS011;13497;48.322;16.204;2022-07-29T11:13:50;2.33;;;1.73;;
25639;SDS011;13497;48.322;16.204;2022-07-29T11:16:18;2.03;;;1.45;;
25639;SDS011;13497;48.322;16.204;2022-07-29T11:21:42;1.90;;;1.60;;
25639;SDS011;13497;48.322;16.204;2022-07-29T11:27:15;1.80;;;1.58;;
25639;SDS011;13497;48.322;16.204;2022-07-29T11:29:52;1.33;;;1.23;;
25639;SDS011;13497;48.322;16.204;2022-07-29T11:32:20;2.17;;;1.70;;
25639;SDS011;13497;48.322;16.204;2022-07-29T11:34:47;3.65;;;2.65;;
25639;SDS011;13497;48.322;16.204;2022-07-29T11:37:14;2.40;;;1.67;;
25639;SDS011;13497;48.322;16.204;2022-07-29T11:44:56;1.40;;;1.30;;
25639;SDS011;13497;48.322;16.204;2022-07-29T11:47:22;2.90;;;1.70;;
25639;SDS011;13497;48.322;16.204;2022-07-29T11:49:48;5.70;;;1.83;;
25639;SDS011;13497;48.322;16.204;2022-07-29T11:52:16;2.22;;;1.58;;
25639;SDS011;13497;48.322;16.204;2022-07-29T11:54:42;1.70;;;1.50;;
25639;SDS011;13497;48.322;16.204;2022-07-29T11:57:08;2.28;;;1.80;;
25639;SDS011;13497;48.322;16.204;2022-07-29T11:59:41;1.60;;;1.45;;
25639;SDS011;13497;48.322;16.204;2022-07-29T12:02:08;2.10;;;1.73;;
25639;SDS011;13497;48.322;16.204;2022-07-29T12:04:47;1.75;;;1.58;;
25639;SDS011;13497;48.322;16.204;2022-07-29T12:07:30;2.17;;;1.60;;
25639;SDS011;13497;48.322;16.204;2022-07-29T12:09:56;1.73;;;1.63;;
25639;SDS011;13497;48.322;16.204;2022-07-29T12:14:48;2.22;;;1.45;;
25639;SDS011;13497;48.322;16.204;2022-07-29T12:17:27;2.60;;;1.50;;
25639;SDS011;13497;48.322;16.204;2022-07-29T12:19:57;1.90;;;1.27;;
25639;SDS011;13497;48.322;16.204;2022-07-29T12:22:42;1.80;;;1.70;;
25639;SDS011;13497;48.322;16.204;2022-07-29T12:25:12;2.13;;;1.92;;
25639;SDS011;13497;48.322;16.204;2022-07-29T12:27:43;1.70;;;1.60;;
25639;SDS011;13497;48.322;16.204;2022-07-29T12:32:37;1.90;;;1.63;;
25639;SDS011;13497;48.322;16.204;2022-07-29T12:35:14;1.67;;;1.58;;
25639;SDS011;13497;48.322;16.204;2022-07-29T12:37:43;1.70;;;1.40;;
25639;SDS011;13497;48.322;16.204;2022-07-29T12:40:10;1.50;;;1.40;;
25639;SDS011;13497;48.322;16.204;2022-07-29T12:42:37;1.48;;;1.35;;
25639;SDS011;13497;48.322;16.204;2022-07-29T12:45:04;1.92;;;1.40;;
25639;SDS011;13497;48.322;16.204;2022-07-29T12:47:31;4.97;;;2.05;;
25639;SDS011;13497;48.322;16.204;2022-07-29T12:50:13;1.98;;;1.70;;
25639;SDS011;13497;48.322;16.204;2022-07-29T12:52:42;2.65;;;1.50;;
25639;SDS011;13497;48.322;16.204;2022-07-29T12:55:09;3.60;;;1.55;;
25639;SDS011;13497;48.322;16.204;2022-07-29T13:00:12;1.73;;;1.50;;
25639;SDS011;13497;48.322;16.204;2022-07-29T13:02:39;2.72;;;1.30;;
25639;SDS011;13497;48.322;16.204;2022-07-29T13:05:06;1.67;;;1.52;;
25639;SDS011;13497;48.322;16.204;2022-07-29T13:07:33;1.50;;;1.23;;
25639;SDS011;13497;48.322;16.204;2022-07-29T13:10:09;1.50;;;1.40;;
25639;SDS011;13497;48.322;16.204;2022-07-29T13:15:39;1.60;;;1.30;;
25639;SDS011;13497;48.322;16.204;2022-07-29T13:18:26;1.80;;;1.60;;
25639;SDS011;13497;48.322;16.204;2022-07-29T13:20:52;5.50;;;1.48;;
25639;SDS011;13497;48.322;16.204;2022-07-29T13:25:43;5.32;;;1.52;;
25639;SDS011;13497;48.322;16.204;2022-07-29T13:28:08;1.85;;;1.38;;
25639;SDS011;13497;48.322;16.204;2022-07-29T13:30:36;1.73;;;1.45;;
25639;SDS011;13497;48.322;16.204;2022-07-29T13:33:02;2.38;;;1.45;;
25639;SDS011;13497;48.322;16.204;2022-07-29T13:35:29;3.67;;;1.92;;
25639;SDS011;13497;48.322;16.204;2022-07-29T13:37:55;2.00;;;1.55;;
25639;SDS011;13497;48.322;16.204;2022-07-29T13:40:21;1.50;;;1.40;;
25639;SDS011;13497;48.322;16.204;2022-07-29T13:42:47;1.52;;;1.42;;
25639;SDS011;13497;48.322;16.204;2022-07-29T13:45:13;1.77;;;1.67;;
25639;SDS011;13497;48.322;16.204;2022-07-29T13:47:39;2.58;;;1.90;;
25639;SDS011;13497;48.322;16.204;2022-07-29T13:50:05;1.77;;;1.65;;
25639;SDS011;13497;48.322;16.204;2022-07-29T13:52:33;4.80;;;1.63;;
25639;SDS011;13497;48.322;16.204;2022-07-29T13:54:59;2.17;;;1.48;;
25639;SDS011;13497;48.322;16.204;2022-07-29T13:57:25;2.60;;;1.92;;
25639;SDS011;13497;48.322;16.204;2022-07-29T13:59:50;5.88;;;2.42;;
25639;SDS011;13497;48.322;16.204;2022-07-29T14:02:16;7.75;;;2.80;;
25639;SDS011;13497;48.322;16.204;2022-07-29T14:04:42;3.72;;;2.38;;
25639;SDS011;13497;48.322;16.204;2022-07-29T14:07:08;2.80;;;2.30;;
25639;SDS011;13497;48.322;16.204;2022-07-29T14:09:34;3.85;;;2.85;;
25639;SDS011;13497;48.322;16.204;2022-07-29T14:12:01;2.45;;;2.25;;
25639;SDS011;13497;48.322;16.204;2022-07-29T14:14:27;4.20;;;2.47;;
25639;SDS011;13497;48.322;16.204;2022-07-29T14:16:54;3.08;;;2.65;;
25639;SDS011;13497;48.322;16.204;2022-07-29T14:19:20;5.25;;;2.40;;
25639;SDS011;13497;48.322;16.204;2022-07-29T14:21:45;3.42;;;2.60;;
25639;SDS011;13497;48.322;16.204;2022-07-29T14:24:11;2.55;;;2.35;;
25639;SDS011;13497;48.322;16.204;2022-07-29T14:26:37;2.40;;;2.20;;
25639;SDS011;13497;48.322;16.204;2022-07-29T14:29:02;2.45;;;1.90;;
25639;SDS011;13497;48.322;16.204;2022-07-29T14:31:28;4.88;;;2.20;;
25639;SDS011;13497;48.322;16.204;2022-07-29T14:33:54;1.98;;;1.77;;
25639;SDS011;13497;48.322;16.204;2022-07-29T14:36:19;2.38;;;1.75;;
25639;SDS011;13497;48.322;16.204;2022-07-29T14:38:45;2.55;;;2.10;;
25639;SDS011;13497;48.322;16.204;2022-07-29T14:41:11;2.28;;;2.00;;
25639;SDS011;13497;48.322;16.204;2022-07-29T14:43:37;2.75;;;2.08;;
25639;SDS011;13497;48.322;16.204;2022-07-29T14:46:02;4.55;;;2.33;;
25639;SDS011;13497;48.322;16.204;2022-07-29T14:48:28;2.80;;;2.35;;
25639;SDS011;13497;48.322;16.204;2022-07-29T14:50:54;4.18;;;2.50;;
25639;SDS011;13497;48.322;16.204;2022-07-29T14:53:21;2.75;;;1.98;;
25639;SDS011;13497;48.322;16.204;2022-07-29T14:58:13;2.35;;;2.05;;
25639;SDS011;13497;48.322;16.204;2022-07-29T15:00:39;2.65;;;2.20;;
25639;SDS011;13497;48.322;16.204;2022-07-29T15:03:04;2.42;;;2.00;;
25639;SDS011;13497;48.322;16.204;2022-07-29T15:05:31;2.15;;;1.95;;
25639;SDS011;13497;48.322;16.204;2022-07-29T15:07:57;2.28;;;2.05;;
25639;SDS011;13497;48.322;16.204;2022-07-29T15:10:23;2.13;;;1.92;;
25639;SDS011;13497;48.322;16.204;2022-07-29T15:12:51;3.58;;;2.20;;
25639;SDS011;13497;48.322;16.204;2022-07-29T15:15:16;2.75;;;2.15;;
25639;SDS011;13497;48.322;16.204;2022-07-29T15:17:42;3.50;;;2.47;;
25639;SDS011;13497;48.322;16.204;2022-07-29T15:20:08;2.47;;;1.98;;
25639;SDS011;13497;48.322;16.204;2022-07-29T15:22:34;3.35;;;2.17;;
25639;SDS011;13497;48.322;16.204;2022-07-29T15:24:59;2.92;;;2.05;;
25639;SDS011;13497;48.322;16.204;2022-07-29T15:27:25;2.53;;;2.03;;
25639;SDS011;13497;48.322;16.204;2022-07-29T15:29:51;4.80;;;1.42;;
25639;SDS011;13497;48.322;16.204;2022-07-29T15:32:16;5.22;;;1.98;;
25639;SDS011;13497;48.322;16.204;2022-07-29T15:34:42;1.92;;;1.58;;
25639;SDS011;13497;48.322;16.204;2022-07-29T15:37:08;2.03;;;1.83;;
25639;SDS011;13497;48.322;16.204;2022-07-29T15:39:35;2.15;;;1.70;;
25639;SDS011;13497;48.322;16.204;2022-07-29T15:42:02;2.33;;;1.80;;
25639;SDS011;13497;48.322;16.204;2022-07-29T15:44:28;2.55;;;1.90;;
25639;SDS011;13497;48.322;16.204;2022-07-29T15:46:53;2.05;;;1.85;;
25639;SDS011;13497;48.322;16.204;2022-07-29T15:49:29;1.80;;;1.60;;
25639;SDS011;13497;48.322;16.204;2022-07-29T15:51:59;2.58;;;1.63;;
25639;SDS011;13497;48.322;16.204;2022-07-29T15:54:25;1.88;;;1.60;;
25639;SDS011;13497;48.322;16.204;2022-07-29T15:56:52;3.00;;;1.88;;
25639;SDS011;13497;48.322;16.204;2022-07-29T15:59:19;3.15;;;1.90;;
25639;SDS011;13497;48.322;16.204;2022-07-29T16:01:45;2.40;;;2.10;;